Time;durP1;ratioP1;P1;durP2;ratioP2;P2;SDS_P1;SDS_P2;PMS_P1;PMS_P2;Temp;Humidity;BMP_temperature;BMP_pressure;BME280_temperature;BME280_humidity;BME280_pressure;Samples;Min_cycle;Max_cycle;Signal;HPM_P1;HPM_P2
2022/03/05 00:00:20;;;;;;;31.70;14.50;;;2.80;99.90;;;;;;5092840;28;20030;-78
2022/03/05 00:02:46;;;;;;;28.55;13.73;;;2.80;99.90;;;;;;5092976;28;20024;-76
2022/03/05 00:05:13;;;;;;;29.73;14.63;;;2.80;99.90;;;;;;5093596;28;20040;-79
2022/03/05 00:07:39;;;;;;;32.00;14.98;;;2.70;99.90;;;;;;5092907;28;20120;-77
2022/03/05 00:10:05;;;;;;;26.83;13.75;;;2.70;99.90;;;;;;5093707;28;20077;-80
2022/03/05 00:12:30;;;;;;;26.10;12.98;;;2.70;99.90;;;;;;5093086;28;20107;-79
2022/03/05 00:14:56;;;;;;;30.27;13.65;;;2.70;99.90;;;;;;5092771;28;20042;-78
2022/03/05 00:17:22;;;;;;;26.52;14.13;;;2.60;99.90;;;;;;5091604;28;20371;-78
2022/03/05 00:19:48;;;;;;;27.92;14.02;;;2.60;99.90;;;;;;5093299;28;20029;-78
2022/03/05 00:22:13;;;;;;;29.05;14.70;;;2.60;99.90;;;;;;5092264;28;20046;-78
2022/03/05 00:24:39;;;;;;;30.38;13.13;;;2.50;99.90;;;;;;5093259;28;20020;-78
2022/03/05 00:27:04;;;;;;;32.90;14.32;;;2.50;99.90;;;;;;5093387;28;20482;-78
2022/03/05 00:29:30;;;;;;;28.38;13.63;;;2.50;99.90;;;;;;5092142;28;20039;-78
2022/03/05 00:31:56;;;;;;;35.08;14.55;;;2.40;99.90;;;;;;5093241;28;20028;-79
2022/03/05 00:34:22;;;;;;;33.10;14.05;;;2.40;99.90;;;;;;5092776;28;20032;-78
2022/03/05 00:36:48;;;;;;;28.48;13.90;;;2.40;99.90;;;;;;5092234;28;20528;-79
2022/03/05 00:39:16;;;;;;;31.88;14.02;;;2.40;99.90;;;;;;5092381;28;20024;-78
2022/03/05 00:41:42;;;;;;;32.45;14.30;;;2.40;99.90;;;;;;5093014;28;20035;-79
2022/03/05 00:44:07;;;;;;;32.30;14.27;;;2.40;99.90;;;;;;5091902;28;20016;-79
2022/03/05 00:46:33;;;;;;;27.67;14.18;;;2.30;99.90;;;;;;5092774;28;20390;-79
2022/03/05 00:48:58;;;;;;;31.45;13.88;;;2.30;99.90;;;;;;5092681;28;20043;-79
2022/03/05 00:51:25;;;;;;;28.80;14.15;;;2.30;99.90;;;;;;5091801;28;20051;-79
2022/03/05 00:53:50;;;;;;;28.13;13.52;;;2.20;99.90;;;;;;5093158;28;20042;-79
2022/03/05 00:56:16;;;;;;;32.63;14.65;;;2.20;99.90;;;;;;5092727;28;20534;-78
2022/03/05 00:58:42;;;;;;;30.58;14.55;;;2.10;99.90;;;;;;5092062;28;20035;-78
2022/03/05 01:01:07;;;;;;;30.67;15.18;;;2.10;99.90;;;;;;5092497;28;20028;-78
2022/03/05 01:03:33;;;;;;;31.38;14.48;;;2.10;99.90;;;;;;5091721;28;20368;-79
2022/03/05 01:05:58;;;;;;;29.70;13.73;;;2.00;99.90;;;;;;5092741;28;20059;-79
2022/03/05 01:08:24;;;;;;;31.20;14.25;;;2.00;99.90;;;;;;5092353;28;20020;-79
2022/03/05 01:10:50;;;;;;;33.92;15.05;;;2.00;99.90;;;;;;5092125;28;20146;-78
2022/03/05 01:13:16;;;;;;;32.83;15.90;;;2.00;99.90;;;;;;5092256;28;20073;-79
2022/03/05 01:15:41;;;;;;;28.70;15.27;;;2.00;99.90;;;;;;5091529;28;20028;-79
2022/03/05 01:18:07;;;;;;;31.95;14.82;;;2.00;99.90;;;;;;5091563;28;20024;-79
2022/03/05 01:20:32;;;;;;;31.52;15.30;;;2.00;99.90;;;;;;5092252;28;20470;-78
2022/03/05 01:22:58;;;;;;;35.83;15.35;;;1.90;99.90;;;;;;5074226;28;20061;-79
2022/03/05 01:25:23;;;;;;;32.13;15.18;;;1.80;99.90;;;;;;5091307;28;20032;-77
2022/03/05 01:27:49;;;;;;;37.17;16.42;;;1.80;99.90;;;;;;5092526;28;20058;-79
2022/03/05 01:30:18;;;;;;;28.20;13.63;;;1.70;99.90;;;;;;5091907;28;20028;-79
2022/03/05 01:32:43;;;;;;;31.98;16.38;;;1.60;99.90;;;;;;5091648;28;20051;-80
2022/03/05 01:35:09;;;;;;;33.60;14.95;;;1.60;99.90;;;;;;5091726;28;20109;-79
2022/03/05 01:37:35;;;;;;;33.92;15.82;;;1.60;99.90;;;;;;5092101;28;20031;-79
2022/03/05 01:40:01;;;;;;;28.33;13.50;;;1.60;99.90;;;;;;5091796;28;20028;-79
2022/03/05 01:42:27;;;;;;;29.23;14.40;;;1.50;99.90;;;;;;5091771;28;20035;-79
2022/03/05 01:44:52;;;;;;;33.45;16.42;;;1.50;99.90;;;;;;5090821;28;20260;-79
2022/03/05 01:47:19;;;;;;;33.55;14.60;;;1.40;99.90;;;;;;5072049;28;20021;-79
2022/03/05 01:49:44;;;;;;;32.25;15.73;;;1.40;99.90;;;;;;5071809;28;20498;-79
2022/03/05 01:52:11;;;;;;;28.38;13.90;;;1.40;99.90;;;;;;5071750;28;20123;-79
2022/03/05 01:54:36;;;;;;;30.25;13.57;;;1.40;99.90;;;;;;5071165;28;20029;-79
2022/03/05 01:57:03;;;;;;;31.75;14.20;;;1.40;99.90;;;;;;5071833;28;20107;-81
2022/03/05 01:59:29;;;;;;;33.05;15.07;;;1.40;99.90;;;;;;5071407;28;20028;-79
2022/03/05 02:01:55;;;;;;;34.10;15.55;;;1.40;99.90;;;;;;5071108;28;20085;-78
2022/03/05 02:04:20;;;;;;;32.45;15.55;;;1.40;99.90;;;;;;5071137;28;20087;-79
2022/03/05 02:06:48;;;;;;;29.80;14.80;;;1.40;99.90;;;;;;5071775;28;20028;-79
2022/03/05 02:09:14;;;;;;;31.25;14.85;;;1.30;99.90;;;;;;5071654;28;20021;-80
2022/03/05 02:11:40;;;;;;;28.92;14.55;;;1.30;99.90;;;;;;5071527;28;20139;-80
2022/03/05 02:14:06;;;;;;;31.58;14.80;;;1.20;99.90;;;;;;5071055;28;20417;-80
2022/03/05 02:16:31;;;;;;;29.73;14.93;;;1.20;99.90;;;;;;5071614;28;20055;-80
2022/03/05 02:18:57;;;;;;;31.10;15.05;;;1.20;99.90;;;;;;5071397;28;20024;-79
2022/03/05 02:21:25;;;;;;;32.05;15.10;;;1.20;99.90;;;;;;5070578;28;20056;-80
2022/03/05 02:23:51;;;;;;;29.55;15.20;;;1.10;99.90;;;;;;5071622;28;20037;-80
2022/03/05 02:26:17;;;;;;;30.73;14.43;;;1.10;99.90;;;;;;5072923;28;20085;-80
2022/03/05 02:28:42;;;;;;;35.63;14.40;;;1.10;99.90;;;;;;5074573;28;20012;-79
2022/03/05 02:31:08;;;;;;;29.90;14.60;;;1.10;99.90;;;;;;5074906;28;20044;-79
2022/03/05 02:33:34;;;;;;;30.70;15.05;;;1.10;99.90;;;;;;5075020;28;20479;-77
2022/03/05 02:36:00;;;;;;;32.17;14.88;;;1.00;99.90;;;;;;5074210;28;20368;-79
2022/03/05 02:38:26;;;;;;;32.33;13.93;;;1.00;99.90;;;;;;5074778;28;20428;-78
2022/03/05 02:40:52;;;;;;;27.05;13.65;;;1.00;99.90;;;;;;5074950;28;20032;-79
2022/03/05 02:43:21;;;;;;;34.63;15.27;;;0.90;99.90;;;;;;5073783;28;20020;-79
2022/03/05 02:45:47;;;;;;;32.83;15.23;;;0.90;99.90;;;;;;5074845;28;20040;-78
2022/03/05 02:48:14;;;;;;;29.83;14.80;;;0.90;99.90;;;;;;5074520;28;20025;-79
2022/03/05 02:50:42;;;;;;;37.28;15.85;;;0.90;99.90;;;;;;5074070;28;20047;-78
2022/03/05 02:53:07;;;;;;;35.67;14.70;;;0.90;99.90;;;;;;5074641;28;20020;-79
2022/03/05 02:55:34;;;;;;;27.85;14.07;;;0.80;99.90;;;;;;5074838;28;20107;-77
2022/03/05 02:57:59;;;;;;;34.90;14.85;;;0.80;99.90;;;;;;5074062;28;20032;-78
2022/03/05 03:00:25;;;;;;;29.40;13.70;;;0.80;99.90;;;;;;5074274;28;20391;-79
2022/03/05 03:02:51;;;;;;;33.80;14.73;;;0.80;99.90;;;;;;5074335;28;20016;-79
2022/03/05 03:05:17;;;;;;;30.58;14.43;;;0.80;99.90;;;;;;5073773;28;20089;-78
2022/03/05 03:07:43;;;;;;;32.75;14.77;;;0.80;99.90;;;;;;5074686;28;20027;-79
2022/03/05 03:10:11;;;;;;;30.67;13.88;;;0.70;99.90;;;;;;5073223;28;20037;-80
2022/03/05 03:12:37;;;;;;;38.30;15.45;;;0.70;99.90;;;;;;5074526;28;20029;-78
2022/03/05 03:15:05;;;;;;;31.40;14.30;;;0.70;99.90;;;;;;5074366;28;20063;-79
2022/03/05 03:17:41;;;;;;;34.83;14.57;;;0.60;99.90;;;;;;5073367;28;20439;-78
2022/03/05 03:20:09;;;;;;;30.20;13.38;;;0.60;99.90;;;;;;5074232;28;20106;-78
2022/03/05 03:22:34;;;;;;;31.73;14.98;;;0.60;99.90;;;;;;5074230;28;20234;-77
2022/03/05 03:25:00;;;;;;;32.50;14.27;;;0.50;99.90;;;;;;5073665;28;20120;-78
2022/03/05 03:27:25;;;;;;;31.60;14.23;;;0.50;99.90;;;;;;5074540;28;20036;-79
2022/03/05 03:29:51;;;;;;;26.00;13.55;;;0.50;99.90;;;;;;5074081;28;20104;-78
2022/03/05 03:32:16;;;;;;;34.38;13.85;;;0.40;99.90;;;;;;5073407;28;20428;-79
2022/03/05 03:34:42;;;;;;;33.30;14.73;;;0.40;99.90;;;;;;5074761;28;20031;-78
2022/03/05 03:37:07;;;;;;;29.80;15.20;;;0.30;99.90;;;;;;5073568;28;20108;-77
2022/03/05 03:39:33;;;;;;;33.65;15.23;;;0.30;99.90;;;;;;5073080;28;20027;-79
2022/03/05 03:41:58;;;;;;;31.95;14.98;;;0.30;99.90;;;;;;5073902;28;20059;-77
2022/03/05 03:44:24;;;;;;;36.65;14.98;;;0.20;99.90;;;;;;5073552;28;20104;-78
2022/03/05 03:46:49;;;;;;;33.55;15.38;;;0.20;99.90;;;;;;5073383;28;20052;-79
2022/03/05 03:49:15;;;;;;;31.00;14.75;;;0.20;99.90;;;;;;5073421;28;20017;-78
2022/03/05 03:51:40;;;;;;;32.70;15.38;;;0.20;99.90;;;;;;5073510;28;20047;-78
2022/03/05 03:54:06;;;;;;;32.88;15.40;;;0.20;99.90;;;;;;5072963;28;20059;-78
2022/03/05 03:56:32;;;;;;;38.00;16.58;;;0.20;99.90;;;;;;5073459;28;20021;-79
2022/03/05 03:58:57;;;;;;;33.15;14.93;;;0.20;99.90;;;;;;5073509;28;20021;-78
2022/03/05 04:01:23;;;;;;;40.15;15.35;;;0.30;99.90;;;;;;5072496;28;20498;-79
2022/03/05 04:03:48;;;;;;;34.65;15.00;;;0.20;99.90;;;;;;5073180;28;20097;-79
2022/03/05 04:06:14;;;;;;;39.95;16.00;;;0.20;99.90;;;;;;5073265;28;20150;-79
2022/03/05 04:08:42;;;;;;;34.25;14.85;;;0.20;99.90;;;;;;5072658;28;20025;-78
2022/03/05 04:11:12;;;;;;;31.98;14.52;;;0.10;99.90;;;;;;5072953;28;20028;-79
2022/03/05 04:13:38;;;;;;;38.70;14.07;;;0.10;99.90;;;;;;5072390;28;20472;-78
2022/03/05 04:16:04;;;;;;;36.53;16.23;;;0.10;99.90;;;;;;5073325;28;20056;-78
2022/03/05 04:18:30;;;;;;;31.30;14.65;;;0.00;99.90;;;;;;5072874;28;20503;-78
2022/03/05 04:20:56;;;;;;;34.17;14.73;;;0.50;99.90;;;;;;5072453;28;20028;-79
2022/03/05 04:23:22;;;;;;;35.65;15.30;;;0.00;99.90;;;;;;5072799;28;20495;-79
2022/03/05 04:25:47;;;;;;;32.60;14.93;;;-0.10;99.90;;;;;;5073062;28;20086;-78
2022/03/05 04:28:13;;;;;;;36.33;14.93;;;-0.10;99.90;;;;;;5071978;28;20025;-78
2022/03/05 04:30:38;;;;;;;32.47;14.07;;;-0.10;99.90;;;;;;5073105;28;20028;-79
2022/03/05 04:33:04;;;;;;;38.03;15.00;;;-0.10;99.90;;;;;;5073057;28;20066;-78
2022/03/05 04:35:30;;;;;;;35.85;15.32;;;-0.20;99.90;;;;;;5071677;28;20090;-76
2022/03/05 04:37:55;;;;;;;39.22;15.65;;;-0.20;99.90;;;;;;5072862;28;20036;-79
2022/03/05 04:40:22;;;;;;;36.60;15.68;;;-0.20;99.90;;;;;;5072455;28;20442;-79
2022/03/05 04:42:49;;;;;;;35.92;15.95;;;-0.20;99.90;;;;;;5071738;28;20035;-79
2022/03/05 04:45:14;;;;;;;35.15;16.25;;;-0.20;99.90;;;;;;5072516;28;20020;-79
2022/03/05 04:47:40;;;;;;;33.95;14.98;;;-0.20;99.90;;;;;;5072637;28;20584;-79
2022/03/05 04:50:08;;;;;;;32.33;15.63;;;-0.30;99.90;;;;;;5071657;28;20078;-79
2022/03/05 04:52:34;;;;;;;31.13;14.80;;;-0.30;99.90;;;;;;5072474;28;20031;-79
2022/03/05 04:55:00;;;;;;;35.45;14.15;;;-0.30;99.90;;;;;;5072311;28;20036;-78
2022/03/05 04:57:26;;;;;;;40.50;16.13;;;-0.30;99.90;;;;;;5071233;28;20783;-78
2022/03/05 04:59:52;;;;;;;33.75;15.57;;;-0.30;99.90;;;;;;5072670;28;20032;-80
2022/03/05 05:02:17;;;;;;;34.63;15.18;;;-0.40;99.90;;;;;;5072210;28;20391;-79
2022/03/05 05:04:43;;;;;;;34.33;15.48;;;-0.30;99.90;;;;;;5071456;28;20094;-79
2022/03/05 05:07:12;;;;;;;33.67;14.40;;;-0.40;99.90;;;;;;5071776;28;20120;-79
2022/03/05 05:09:38;;;;;;;36.10;16.67;;;-0.40;99.90;;;;;;5072173;28;20025;-79
2022/03/05 05:12:05;;;;;;;35.67;16.20;;;-0.40;99.90;;;;;;5071646;28;20064;-79
2022/03/05 05:14:30;;;;;;;43.28;16.23;;;-0.40;99.90;;;;;;5072207;28;20391;-78
2022/03/05 05:16:56;;;;;;;39.33;16.75;;;-0.40;99.90;;;;;;5071760;28;20021;-78
2022/03/05 05:19:24;;;;;;;38.05;14.70;;;-0.50;99.90;;;;;;5072103;28;20464;-79
2022/03/05 05:21:52;;;;;;;34.13;15.65;;;-0.50;99.90;;;;;;5072078;28;20125;-78
2022/03/05 05:24:17;;;;;;;39.00;16.70;;;-0.50;99.90;;;;;;5071271;28;20035;-78
2022/03/05 05:26:43;;;;;;;37.22;16.45;;;-0.50;99.90;;;;;;5072125;28;20354;-79
2022/03/05 05:29:09;;;;;;;39.42;17.40;;;-0.50;99.90;;;;;;5071955;28;20023;-79
2022/03/05 05:31:35;;;;;;;36.63;15.70;;;-0.50;99.90;;;;;;5071506;28;20036;-79
2022/03/05 05:34:01;;;;;;;44.67;17.08;;;-0.50;99.90;;;;;;5072168;28;20017;-78
2022/03/05 05:36:27;;;;;;;35.75;14.57;;;-0.60;99.90;;;;;;5071969;28;20541;-80
2022/03/05 05:38:52;;;;;;;33.90;15.43;;;-0.50;99.90;;;;;;5071146;28;20111;-80
2022/03/05 05:41:18;;;;;;;33.05;14.95;;;-0.60;99.90;;;;;;5071422;28;20024;-79
2022/03/05 05:43:44;;;;;;;37.67;15.85;;;-0.60;99.90;;;;;;5071966;28;20024;-79
2022/03/05 05:46:13;;;;;;;35.65;15.63;;;-0.60;99.90;;;;;;5071135;28;20412;-79
2022/03/05 05:48:39;;;;;;;40.53;16.42;;;-0.60;99.90;;;;;;5071941;28;20100;-78
2022/03/05 05:51:05;;;;;;;38.03;17.73;;;-0.50;99.90;;;;;;5071853;28;20457;-78
2022/03/05 05:53:31;;;;;;;38.58;16.23;;;-0.50;99.90;;;;;;5071295;28;20032;-78
2022/03/05 05:55:56;;;;;;;39.60;15.63;;;-0.60;99.90;;;;;;5072521;28;20415;-79
2022/03/05 05:58:22;;;;;;;42.40;17.38;;;-0.50;99.90;;;;;;5071661;28;20031;-79
2022/03/05 06:00:48;;;;;;;42.13;17.48;;;-0.50;99.90;;;;;;5071464;28;20024;-79
2022/03/05 06:03:15;;;;;;;45.88;18.15;;;-0.50;99.90;;;;;;5075131;28;20521;-79
2022/03/05 06:05:40;;;;;;;46.00;17.60;;;-0.50;99.90;;;;;;5075396;28;20039;-80
2022/03/05 06:08:06;;;;;;;45.00;17.60;;;-0.50;99.90;;;;;;5074916;28;20112;-79
2022/03/05 06:10:31;;;;;;;41.03;16.98;;;-0.60;99.90;;;;;;5075307;28;20056;-79
2022/03/05 06:12:57;;;;;;;39.45;16.58;;;-0.60;99.90;;;;;;5075238;28;20027;-79
2022/03/05 06:15:23;;;;;;;42.22;17.02;;;-0.60;99.90;;;;;;5074987;28;20028;-79
2022/03/05 06:17:48;;;;;;;45.38;18.27;;;-0.60;99.90;;;;;;5075360;28;20017;-79
2022/03/05 06:20:14;;;;;;;44.65;18.55;;;-0.70;99.90;;;;;;5074570;28;20356;-79
2022/03/05 06:22:40;;;;;;;45.40;18.70;;;-0.70;99.90;;;;;;5075429;28;20017;-80
2022/03/05 06:25:07;;;;;;;45.80;18.83;;;-0.70;99.90;;;;;;5075273;28;20056;-80
2022/03/05 06:27:32;;;;;;;49.50;18.42;;;-0.60;99.90;;;;;;5074703;28;20380;-80
2022/03/05 06:29:58;;;;;;;37.25;16.55;;;-0.60;99.90;;;;;;5075381;28;20020;-81
2022/03/05 06:32:23;;;;;;;48.25;18.15;;;-0.60;99.90;;;;;;5074856;28;20384;-80
2022/03/05 06:34:49;;;;;;;42.17;17.55;;;-0.60;99.90;;;;;;5074459;28;20013;-80
2022/03/05 06:37:14;;;;;;;41.50;17.13;;;-0.60;99.90;;;;;;5075106;28;20029;-80
2022/03/05 06:39:40;;;;;;;45.70;17.65;;;-0.60;99.90;;;;;;5075550;28;20495;-80
2022/03/05 06:42:06;;;;;;;45.20;17.80;;;-0.60;99.90;;;;;;5073434;28;20166;-81
2022/03/05 06:44:35;;;;;;;44.45;17.98;;;-0.60;99.90;;;;;;5075038;28;20483;-80
2022/03/05 06:47:01;;;;;;;48.10;18.17;;;-0.50;99.90;;;;;;5075001;28;20036;-80
2022/03/05 06:49:27;;;;;;;44.78;18.90;;;-0.50;99.90;;;;;;5074035;28;20055;-79
2022/03/05 06:51:53;;;;;;;46.55;17.50;;;-0.50;99.90;;;;;;5074577;28;20111;-80
2022/03/05 06:54:18;;;;;;;45.30;19.40;;;-0.40;99.90;;;;;;5074570;28;20025;-79
2022/03/05 06:56:44;;;;;;;44.75;18.15;;;-0.40;99.90;;;;;;5074130;28;20021;-79
2022/03/05 06:59:09;;;;;;;46.40;17.38;;;-0.40;99.90;;;;;;5074327;28;20017;-79
2022/03/05 07:01:35;;;;;;;44.47;17.77;;;-0.40;99.90;;;;;;5082469;28;20024;-78
2022/03/05 07:04:00;;;;;;;52.80;19.17;;;-0.30;99.90;;;;;;5092114;28;20441;-78
2022/03/05 07:06:26;;;;;;;49.03;19.58;;;-0.30;99.90;;;;;;5092940;28;20589;-79
2022/03/05 07:08:51;;;;;;;45.30;18.63;;;-0.20;99.90;;;;;;5092316;28;20047;-78
2022/03/05 07:11:17;;;;;;;47.67;19.05;;;-0.20;99.90;;;;;;5089086;28;20036;-76
2022/03/05 07:13:42;;;;;;;45.38;19.40;;;-0.20;99.90;;;;;;5091444;28;20016;-77
2022/03/05 07:16:08;;;;;;;46.13;18.63;;;-0.10;99.90;;;;;;5091958;28;20503;-77
2022/03/05 07:18:33;;;;;;;46.65;18.88;;;0.00;99.90;;;;;;5092315;28;20020;-77
2022/03/05 07:20:59;;;;;;;50.10;20.58;;;-0.10;99.90;;;;;;5092849;28;20043;-78
2022/03/05 07:23:25;;;;;;;48.47;18.50;;;0.00;99.90;;;;;;5092004;28;20519;-77
2022/03/05 07:25:50;;;;;;;44.00;18.10;;;0.20;99.90;;;;;;5093072;28;20344;-77
2022/03/05 07:28:16;;;;;;;45.85;19.25;;;0.20;99.90;;;;;;5092864;28;20389;-78
2022/03/05 07:30:44;;;;;;;46.50;19.55;;;0.20;99.90;;;;;;5092087;28;20027;-77
2022/03/05 07:33:10;;;;;;;49.33;19.33;;;-0.10;99.90;;;;;;5089749;28;20194;-77
2022/03/05 07:35:36;;;;;;;54.58;21.58;;;0.30;99.90;;;;;;5092602;28;20498;-78
2022/03/05 07:38:01;;;;;;;47.70;20.27;;;0.40;99.90;;;;;;5086279;28;20041;-77
2022/03/05 07:40:27;;;;;;;56.90;20.45;;;0.50;99.90;;;;;;5072610;28;20495;-78
2022/03/05 07:42:53;;;;;;;50.42;20.35;;;0.50;99.90;;;;;;5089818;28;20023;-77
2022/03/05 07:45:19;;;;;;;54.28;19.20;;;0.60;99.90;;;;;;5091736;28;20111;-77
2022/03/05 07:47:45;;;;;;;58.67;20.55;;;0.60;99.90;;;;;;5092516;28;20008;-77
2022/03/05 07:50:10;;;;;;;49.35;20.80;;;0.70;99.90;;;;;;5091622;28;20032;-77
2022/03/05 07:52:36;;;;;;;52.05;20.23;;;0.70;99.90;;;;;;5089489;28;20024;-77
2022/03/05 07:55:02;;;;;;;49.63;20.58;;;0.80;99.90;;;;;;5092352;28;20008;-77
2022/03/05 07:57:28;;;;;;;49.63;18.55;;;0.70;99.90;;;;;;5089525;28;20028;-78
2022/03/05 07:59:53;;;;;;;48.72;18.92;;;0.80;99.90;;;;;;5091445;28;20379;-78
2022/03/05 08:02:19;;;;;;;53.50;20.67;;;0.90;99.90;;;;;;5092156;28;20069;-77
2022/03/05 08:04:44;;;;;;;54.30;21.60;;;0.90;99.90;;;;;;5092103;28;20036;-78
2022/03/05 08:07:10;;;;;;;48.88;20.98;;;1.10;99.90;;;;;;5088659;28;20031;-79
2022/03/05 08:09:36;;;;;;;53.28;21.92;;;1.10;99.90;;;;;;5092352;28;20020;-78
2022/03/05 08:12:05;;;;;;;52.13;19.98;;;1.10;99.90;;;;;;5092125;28;20079;-78
2022/03/05 08:14:31;;;;;;;49.03;19.88;;;1.20;99.90;;;;;;5091890;28;20019;-78
2022/03/05 08:16:56;;;;;;;58.15;21.70;;;1.20;99.90;;;;;;5091028;28;20008;-78
2022/03/05 08:19:22;;;;;;;52.92;21.30;;;1.30;99.90;;;;;;5090191;28;20024;-79
2022/03/05 08:21:47;;;;;;;54.03;20.98;;;1.30;99.90;;;;;;5091341;28;20024;-79
2022/03/05 08:24:13;;;;;;;56.30;21.02;;;1.40;99.90;;;;;;5071074;28;20013;-79
2022/03/05 08:26:39;;;;;;;52.55;20.73;;;1.40;99.90;;;;;;5070977;28;20472;-79
2022/03/05 08:29:05;;;;;;;56.13;20.95;;;1.50;99.90;;;;;;5071464;28;20040;-79
2022/03/05 08:31:31;;;;;;;53.40;21.48;;;1.60;99.90;;;;;;5069276;28;20112;-79
2022/03/05 08:33:58;;;;;;;56.60;21.38;;;1.60;99.90;;;;;;5070039;28;20040;-79
2022/03/05 08:36:24;;;;;;;53.67;22.63;;;1.70;99.90;;;;;;5070918;28;20016;-81
2022/03/05 08:38:50;;;;;;;52.72;20.52;;;1.70;99.90;;;;;;5074478;28;20162;-80
2022/03/05 08:41:16;;;;;;;58.75;21.35;;;1.80;99.90;;;;;;5070935;28;20099;-81
2022/03/05 08:43:42;;;;;;;56.35;21.02;;;1.80;99.90;;;;;;5071474;28;20026;-80
2022/03/05 08:46:08;;;;;;;55.60;21.20;;;2.00;99.90;;;;;;5072346;28;20074;-81
2022/03/05 08:48:34;;;;;;;51.67;22.20;;;2.00;99.90;;;;;;5071743;28;20032;-81
2022/03/05 08:51:00;;;;;;;57.63;22.33;;;2.10;99.90;;;;;;5072770;28;20032;-79
2022/03/05 08:53:25;;;;;;;51.97;20.27;;;2.10;99.90;;;;;;5074178;28;20016;-79
2022/03/05 08:55:51;;;;;;;58.60;22.63;;;2.10;99.90;;;;;;5072679;28;20499;-80
2022/03/05 08:58:17;;;;;;;50.50;20.75;;;2.10;99.90;;;;;;5072378;28;20020;-80
2022/03/05 09:00:43;;;;;;;56.05;22.27;;;2.20;99.90;;;;;;5072445;28;20077;-79
2022/03/05 09:03:08;;;;;;;56.15;22.30;;;2.20;99.90;;;;;;5071099;28;20060;-80
2022/03/05 09:05:34;;;;;;;50.33;21.23;;;2.30;99.90;;;;;;5077380;28;20459;-80
2022/03/05 09:08:00;;;;;;;59.80;22.25;;;2.30;99.90;;;;;;5070918;28;20320;-79
2022/03/05 09:10:25;;;;;;;55.03;21.85;;;2.40;99.90;;;;;;5070560;28;20033;-81
2022/03/05 09:12:51;;;;;;;50.30;21.17;;;2.40;99.90;;;;;;5072883;28;20021;-83
2022/03/05 09:15:17;;;;;;;55.50;22.02;;;2.50;99.90;;;;;;5078308;28;20166;-82
2022/03/05 09:17:42;;;;;;;53.50;21.50;;;2.60;99.90;;;;;;5093056;28;20047;-82
2022/03/05 09:20:09;;;;;;;55.38;20.60;;;2.70;99.90;;;;;;5092600;28;20035;-83
2022/03/05 09:22:35;;;;;;;49.45;20.95;;;2.70;99.90;;;;;;5092724;28;20032;-82
2022/03/05 09:25:01;;;;;;;59.28;24.20;;;2.70;99.90;;;;;;5091988;28;20028;-81
2022/03/05 09:27:26;;;;;;;63.05;24.30;;;2.80;99.90;;;;;;5092455;28;20488;-78
2022/03/05 09:29:52;;;;;;;57.90;22.75;;;3.90;99.90;;;;;;5092788;28;20353;-82
2022/03/05 09:32:17;;;;;;;54.58;20.58;;;2.90;99.90;;;;;;5091881;28;20081;-83
2022/03/05 09:34:43;;;;;;;49.03;19.92;;;3.00;99.90;;;;;;5093027;28;20025;-83
2022/03/05 09:37:09;;;;;;;49.15;20.88;;;3.00;99.90;;;;;;5091505;28;20529;-82
2022/03/05 09:39:36;;;;;;;52.10;21.88;;;3.10;99.90;;;;;;5093163;28;20020;-81
2022/03/05 09:42:04;;;;;;;51.55;21.15;;;3.10;99.90;;;;;;5094736;28;20584;-80
2022/03/05 09:44:30;;;;;;;53.58;21.83;;;3.20;99.90;;;;;;5091734;28;20050;-80
2022/03/05 09:46:57;;;;;;;65.75;22.45;;;3.30;99.90;;;;;;5092680;28;20020;-82
2022/03/05 09:49:26;;;;;;;50.22;21.60;;;3.30;99.90;;;;;;5092271;28;20036;-81
2022/03/05 09:51:53;;;;;;;54.83;20.92;;;3.40;99.90;;;;;;5092026;28;20074;-79
2022/03/05 09:54:18;;;;;;;55.80;21.90;;;3.40;99.90;;;;;;5091875;28;20073;-80
2022/03/05 09:56:44;;;;;;;50.08;20.60;;;3.40;99.90;;;;;;5089400;28;20422;-81
2022/03/05 09:59:10;;;;;;;55.17;21.42;;;3.50;99.90;;;;;;5070207;28;20021;-79
2022/03/05 10:01:36;;;;;;;58.50;22.52;;;3.60;99.90;;;;;;5072711;28;20025;-79
2022/03/05 10:04:02;;;;;;;59.28;22.48;;;3.60;99.90;;;;;;5085746;28;20055;-78
2022/03/05 10:06:28;;;;;;;52.42;21.90;;;3.70;99.90;;;;;;5090986;28;20055;-79
2022/03/05 10:08:57;;;;;;;48.95;21.05;;;3.70;99.90;;;;;;5091988;28;20108;-80
2022/03/05 10:11:24;;;;;;;55.38;22.42;;;3.80;99.90;;;;;;5074785;28;20036;-80
2022/03/05 10:13:50;;;;;;;54.08;22.15;;;3.80;99.90;;;;;;5072466;28;20105;-80
2022/03/05 10:16:29;;;;;;;58.33;23.20;;;3.90;99.90;;;;;;5072940;28;20428;-81
2022/03/05 10:18:57;;;;;;;53.35;21.92;;;4.00;99.90;;;;;;5096395;28;20031;-80
2022/03/05 10:21:30;;;;;;;57.00;23.52;;;4.00;99.90;;;;;;5096694;28;20070;-81
2022/03/05 10:24:09;;;;;;;52.10;22.90;;;4.00;99.90;;;;;;5101456;28;20032;-80
2022/03/05 10:26:52;;;;;;;57.60;23.20;;;4.10;99.90;;;;;;5104579;28;20028;-80
2022/03/05 10:29:22;;;;;;;51.65;21.60;;;4.20;99.90;;;;;;5097341;28;20047;-80
2022/03/05 10:32:01;;;;;;;54.95;23.52;;;4.20;99.90;;;;;;5100008;28;20096;-79
2022/03/05 10:34:27;;;;;;;49.70;22.15;;;4.30;99.90;;;;;;5087993;28;20075;-81
2022/03/05 10:36:58;;;;;;;58.38;23.85;;;4.30;99.90;;;;;;5103317;28;20031;-81
2022/03/05 10:39:24;;;;;;;;;;;4.40;99.90;;;;;;5099886;28;20411;-80
2022/03/05 10:41:51;;;;;;;50.83;21.35;;;4.40;99.90;;;;;;5116455;28;19904;-80
2022/03/05 10:44:19;;;;;;;52.85;21.95;;;4.50;99.90;;;;;;5112714;28;20019;-80
2022/03/05 10:46:56;;;;;;;51.67;22.23;;;4.50;99.90;;;;;;5106666;28;20023;-77
2022/03/05 10:49:39;;;;;;;52.20;21.70;;;4.70;99.90;;;;;;5110072;28;20071;-80
2022/03/05 10:52:06;;;;;;;53.50;23.08;;;4.80;99.90;;;;;;5092958;28;20349;-78
2022/03/05 10:54:32;;;;;;;55.70;22.25;;;4.80;99.90;;;;;;5093663;28;20028;-78
2022/03/05 10:57:09;;;;;;;51.95;22.23;;;4.80;99.90;;;;;;5103842;28;20618;-80
2022/03/05 10:59:38;;;;;;;48.67;20.98;;;4.90;99.90;;;;;;5107487;28;20580;-81
2022/03/05 11:02:04;;;;;;;52.58;21.55;;;5.00;99.90;;;;;;5092032;28;20056;-80
2022/03/05 11:04:35;;;;;;;54.70;22.17;;;5.00;99.90;;;;;;5083803;28;20066;-78
2022/03/05 11:07:01;;;;;;;54.45;21.50;;;5.10;99.90;;;;;;5082584;28;20472;-81
2022/03/05 11:09:28;;;;;;;56.55;21.70;;;5.20;99.90;;;;;;5083414;28;20115;-85
2022/03/05 11:11:55;;;;;;;51.90;22.80;;;5.30;99.90;;;;;;5095353;28;20047;-78
2022/03/05 11:14:21;;;;;;;54.17;22.25;;;5.30;99.90;;;;;;5092003;28;20419;-78
2022/03/05 11:16:46;;;;;;;58.00;24.85;;;5.40;99.90;;;;;;5084307;28;20031;-78
2022/03/05 11:19:14;;;;;;;54.42;22.10;;;5.50;99.90;;;;;;5105669;28;20048;-78
2022/03/05 11:21:39;;;;;;;49.05;22.95;;;5.60;99.90;;;;;;5092666;28;20062;-78
2022/03/05 11:24:06;;;;;;;52.90;23.95;;;5.60;99.90;;;;;;5094605;28;20040;-78
2022/03/05 11:26:32;;;;;;;57.60;23.23;;;5.60;99.90;;;;;;5083625;28;20380;-78
2022/03/05 11:28:58;;;;;;;52.53;21.65;;;5.70;99.90;;;;;;5081882;28;20127;-77
2022/03/05 11:31:29;;;;;;;52.47;21.95;;;5.70;99.90;;;;;;5080610;28;20036;-77
2022/03/05 11:33:54;;;;;;;48.30;20.92;;;5.70;99.90;;;;;;5105819;28;20047;-77
2022/03/05 11:36:36;;;;;;;51.97;20.85;;;5.70;99.90;;;;;;5107942;28;20077;-78
2022/03/05 11:39:22;;;;;;;55.78;21.48;;;5.80;99.90;;;;;;5103512;28;20039;-76
2022/03/05 11:42:03;;;;;;;50.47;21.63;;;6.00;99.90;;;;;;5108853;28;20028;-78
2022/03/05 11:44:41;;;;;;;48.95;20.88;;;6.10;99.90;;;;;;5099503;28;20107;-75
2022/03/05 11:47:19;;;;;;;50.60;21.48;;;6.20;99.90;;;;;;5102941;28;20399;-77
2022/03/05 11:50:00;;;;;;;47.80;21.85;;;6.30;99.90;;;;;;5106423;28;20027;-76
2022/03/05 11:52:43;;;;;;;48.47;21.13;;;6.40;99.90;;;;;;5094887;28;20033;-79
2022/03/05 11:55:14;;;;;;;59.10;23.67;;;6.30;99.90;;;;;;5103308;28;20068;-78
2022/03/05 11:58:02;;;;;;;50.63;22.65;;;6.40;99.90;;;;;;5094688;28;20089;-77
2022/03/05 12:00:31;;;;;;;50.00;22.48;;;6.50;99.90;;;;;;5089300;28;20016;-77
2022/03/05 12:03:00;;;;;;;49.28;23.25;;;6.50;99.90;;;;;;5093272;28;20055;-77
2022/03/05 12:05:41;;;;;;;51.47;22.33;;;6.50;99.90;;;;;;5090876;28;20028;-76
2022/03/05 12:08:21;;;;;;;52.08;21.98;;;6.60;99.90;;;;;;5091709;28;20035;-78
2022/03/05 12:11:11;;;;;;;45.30;21.45;;;6.70;99.90;;;;;;5091864;28;20550;-78
2022/03/05 12:13:45;;;;;;;55.05;22.65;;;6.70;99.90;;;;;;5089596;28;20070;-78
2022/03/05 12:16:21;;;;;;;49.22;22.48;;;6.80;99.90;;;;;;5080244;28;20406;-78
2022/03/05 12:18:49;;;;;;;47.00;21.90;;;6.90;99.90;;;;;;5093750;28;20055;-79
2022/03/05 12:21:20;;;;;;;48.60;21.42;;;6.90;99.90;;;;;;5095168;28;20484;-77
2022/03/05 12:23:46;;;;;;;48.25;22.75;;;7.00;99.90;;;;;;5112085;28;20058;-78
2022/03/05 12:26:16;;;;;;;56.67;23.15;;;7.10;99.90;;;;;;5106503;28;20097;-77
2022/03/05 12:28:43;;;;;;;45.10;21.75;;;7.20;99.90;;;;;;5101878;28;20046;-77
2022/03/05 12:31:18;;;;;;;48.53;22.10;;;7.30;99.90;;;;;;5100622;28;20118;-78
2022/03/05 12:33:48;;;;;;;47.80;21.95;;;7.30;99.90;;;;;;5094335;28;20020;-79